This is the latest recevied weather packets stored in our database for station/object KA3BQE-13. If no packets are shown the sender has not sent any weather packets the latest 10 day(s).
| Time | Temp. | Humidity | Pressure | Rain* | Wind** | Luminosity | Snow |
|---|---|---|---|---|---|---|---|
| 1778085410 | 14.44° C | 53% | 1017.3 hPa | 0 mm | - | 538 W/m² | - |
| 1778085105 | 13.33° C | 47% | 1017.1 hPa | 0 mm | - | 724 W/m² | - |
| 1778084801 | 12.78° C | 57% | 1017 hPa | 0 mm | - | 877 W/m² | - |
| 1778084499 | 13.89° C | 59% | 1017 hPa | 0 mm | - | 806 W/m² | - |
| 1778084196 | 13.33° C | 57% | 1017.1 hPa | 0 mm | - | 777 W/m² | - |
| 1778083893 | 12.78° C | 55% | 1016.8 hPa | 0 mm | - | 739 W/m² | - |
| 1778083590 | 13.33° C | 62% | 1016.9 hPa | 0 mm | - | 453 W/m² | - |
| 1778083287 | 12.22° C | 63% | 1016.7 hPa | 0 mm | - | 454 W/m² | - |
| 1778082986 | 12.22° C | 62% | 1016.8 hPa | 0 mm | - | 424 W/m² | - |
| 1778082682 | 11.11° C | 65% | 1016.6 hPa | 0 mm | - | 331 W/m² | - |
| 1778081539 | 11.11° C | 65% | 1016.5 hPa | 0 mm | - | 282 W/m² | - |
| 1778081236 | 11.11° C | 65% | 1016.4 hPa | 0 mm | - | 258 W/m² | - |
| 1778080933 | 11.11° C | 67% | 1016.2 hPa | 0 mm | - | 252 W/m² | - |
| 1778080633 | 11.11° C | 65% | 1016.1 hPa | 0 mm | - | 249 W/m² | - |
| 1778080329 | 10.56° C | 68% | 1016.1 hPa | 0 mm | - | 233 W/m² | - |
| 1778080025 | 11.11° C | 62% | 1016.3 hPa | 0 mm | - | 251 W/m² | - |
| 1778079722 | 11.11° C | 65% | 1016.2 hPa | 0 mm | - | 308 W/m² | - |
| 1778079419 | 10.56° C | 65% | 1016.1 hPa | 0 mm | - | 306 W/m² | - |
| 1778079116 | 10° C | 67% | 1016 hPa | 0 mm | - | 331 W/m² | - |
| 1778078813 | 10.56° C | 68% | 1016 hPa | 0 mm | - | 260 W/m² | - |
| 1778078510 | 10.56° C | 69% | 1015.9 hPa | 0 mm | - | 262 W/m² | - |
| 1778078208 | 10° C | 68% | 1015.9 hPa | 0 mm | - | 274 W/m² | - |
| 1778077905 | 10° C | 66% | 1015.8 hPa | 0 mm | - | 254 W/m² | - |
| 1778077604 | 10° C | 68% | 1016 hPa | 0 mm | - | 202 W/m² | - |
| 1778077301 | 10° C | 69% | 1015.9 hPa | 0 mm | - | 211 W/m² | - |
* Rain latest hour (hover to see other rain measurements)
** Current wind speed in m/s (hover to see current wind gust speed)